createdAt,value
2017-10-01T00:00:52.369Z,12.80
2017-10-01T00:03:19.870Z,12.80
2017-10-01T00:05:47.386Z,12.80
2017-10-01T00:08:14.883Z,12.80
2017-10-01T00:10:42.400Z,12.80
2017-10-01T00:13:09.904Z,12.70
2017-10-01T00:15:37.427Z,12.70
2017-10-01T00:18:04.935Z,12.60
2017-10-01T00:20:33.214Z,12.60
2017-10-01T00:23:01.475Z,12.60
2017-10-01T00:25:28.989Z,12.60
2017-10-01T00:27:56.499Z,12.60
2017-10-01T00:30:24.058Z,12.50
2017-10-01T00:32:52.412Z,12.50
2017-10-01T00:35:20.017Z,12.50
2017-10-01T00:37:48.221Z,12.40
2017-10-01T00:40:15.774Z,12.40
2017-10-01T00:42:44.714Z,12.40
2017-10-01T00:45:13.215Z,12.40
2017-10-01T00:47:40.978Z,12.30
2017-10-01T00:50:08.643Z,12.30
2017-10-01T00:52:36.174Z,12.10
2017-10-01T00:55:03.675Z,12.10
2017-10-01T00:57:31.182Z,12.10
2017-10-01T00:59:58.685Z,12.00
2017-10-01T01:02:26.203Z,11.90
2017-10-01T01:04:53.706Z,11.90
2017-10-01T01:07:21.229Z,11.80
2017-10-01T01:09:48.726Z,11.70
2017-10-01T01:12:16.246Z,11.80
2017-10-01T01:14:43.748Z,11.70
2017-10-01T01:17:11.263Z,11.70
2017-10-01T01:19:38.787Z,11.60
2017-10-01T01:22:06.301Z,11.60
2017-10-01T01:24:34.559Z,11.60
2017-10-01T01:27:02.092Z,11.60
2017-10-01T01:29:29.586Z,11.60
2017-10-01T01:31:57.851Z,11.60
2017-10-01T01:34:25.362Z,11.60
2017-10-01T01:36:52.858Z,11.60
2017-10-01T01:39:20.370Z,11.50
2017-10-01T01:41:47.866Z,11.50
2017-10-01T01:44:15.375Z,11.50
2017-10-01T01:46:42.874Z,11.50
2017-10-01T01:49:10.390Z,11.50
2017-10-01T01:51:37.895Z,11.40
2017-10-01T01:54:05.407Z,11.40
2017-10-01T01:56:32.911Z,11.40
2017-10-01T01:59:00.432Z,11.40
2017-10-01T02:01:27.974Z,11.40
2017-10-01T02:03:55.545Z,11.40
2017-10-01T02:06:23.120Z,11.40
2017-10-01T02:08:51.163Z,11.40
2017-10-01T02:11:19.104Z,11.40
2017-10-01T02:13:49.257Z,11.50
2017-10-01T02:16:17.177Z,11.40
2017-10-01T02:18:44.723Z,11.40
2017-10-01T02:21:12.262Z,11.40
2017-10-01T02:23:39.782Z,11.40
2017-10-01T02:26:08.042Z,11.30
2017-10-01T02:28:35.535Z,11.20
2017-10-01T02:31:03.060Z,11.30
2017-10-01T02:33:30.563Z,11.30
2017-10-01T02:35:58.082Z,11.30
2017-10-01T02:38:26.343Z,11.20
2017-10-01T02:40:53.863Z,11.20
2017-10-01T02:43:21.363Z,11.20
2017-10-01T02:45:48.870Z,11.20
2017-10-01T02:48:16.376Z,11.10
2017-10-01T02:50:44.142Z,11.10
2017-10-01T02:53:11.643Z,11.10
2017-10-01T02:55:39.158Z,11.10
2017-10-01T02:58:06.654Z,11.10
2017-10-01T03:00:34.171Z,11.00
2017-10-01T03:03:01.671Z,10.90
2017-10-01T03:05:29.183Z,11.00
2017-10-01T03:07:56.683Z,10.90
2017-10-01T03:10:24.200Z,10.90
2017-10-01T03:12:51.697Z,10.90
2017-10-01T03:15:19.208Z,10.90
2017-10-01T03:17:46.711Z,10.90
2017-10-01T03:20:14.230Z,10.90
2017-10-01T03:22:41.731Z,10.90
2017-10-01T03:25:09.260Z,10.90
2017-10-01T03:27:36.753Z,10.80
2017-10-01T03:30:04.247Z,10.90
2017-10-01T03:32:31.763Z,10.80
2017-10-01T03:34:59.267Z,10.80
2017-10-01T03:37:27.279Z,10.80
2017-10-01T03:39:54.813Z,10.70
2017-10-01T03:42:22.336Z,10.80
2017-10-01T03:44:49.915Z,10.80
2017-10-01T03:47:17.514Z,10.90
2017-10-01T03:49:45.132Z,10.80
2017-10-01T03:52:13.893Z,10.80
2017-10-01T03:54:41.495Z,10.80
2017-10-01T03:57:09.047Z,10.90
2017-10-01T03:59:37.159Z,10.80
2017-10-01T04:02:05.707Z,10.70
2017-10-01T04:04:33.998Z,10.80
2017-10-01T04:07:01.507Z,10.80
2017-10-01T04:09:29.003Z,10.80
2017-10-01T04:11:56.524Z,10.70
2017-10-01T04:14:24.029Z,10.70
2017-10-01T04:16:51.542Z,10.70
2017-10-01T04:19:19.040Z,10.70
2017-10-01T04:21:46.550Z,10.70
2017-10-01T04:24:14.047Z,10.70
2017-10-01T04:26:41.544Z,10.70
2017-10-01T04:29:09.055Z,10.70
2017-10-01T04:31:36.550Z,10.60
2017-10-01T04:34:04.836Z,10.60
2017-10-01T04:36:32.566Z,10.60
2017-10-01T04:39:00.082Z,10.60
2017-10-01T04:41:27.815Z,10.50
2017-10-01T04:43:56.090Z,10.60
2017-10-01T04:46:24.346Z,10.60
2017-10-01T04:48:52.631Z,10.50
2017-10-01T04:51:20.899Z,10.50
2017-10-01T04:53:49.188Z,10.50
2017-10-01T04:56:17.455Z,10.50
2017-10-01T04:58:45.739Z,10.50
2017-10-01T05:01:14.007Z,10.50
2017-10-01T05:03:42.289Z,10.50
2017-10-01T05:06:10.547Z,10.50
2017-10-01T05:08:38.063Z,10.50
2017-10-01T05:11:05.563Z,10.50
2017-10-01T05:13:34.691Z,10.40
2017-10-01T05:16:02.227Z,10.30
2017-10-01T05:18:30.579Z,10.40
2017-10-01T05:20:58.139Z,10.40
2017-10-01T05:23:26.514Z,10.40
2017-10-01T05:25:57.311Z,10.40
2017-10-01T05:28:25.557Z,10.40
2017-10-01T05:30:53.858Z,10.50
2017-10-01T05:33:22.197Z,10.40
2017-10-01T05:35:49.711Z,10.40
2017-10-01T05:38:17.218Z,10.40
2017-10-01T05:40:44.731Z,10.40
2017-10-01T05:43:12.226Z,10.50
2017-10-01T05:45:39.739Z,10.50
2017-10-01T05:48:07.239Z,10.50
2017-10-01T05:50:34.763Z,10.50
2017-10-01T05:53:02.259Z,10.50
2017-10-01T05:55:29.771Z,10.50
2017-10-01T05:57:57.281Z,10.50
2017-10-01T06:00:24.794Z,10.50
2017-10-01T06:02:52.290Z,10.50
2017-10-01T06:05:19.802Z,10.50
2017-10-01T06:07:47.294Z,10.50
2017-10-01T06:10:14.816Z,10.60
2017-10-01T06:12:42.318Z,10.50
2017-10-01T06:15:09.832Z,10.50
2017-10-01T06:17:37.331Z,10.50
2017-10-01T06:20:04.859Z,10.60
2017-10-01T06:22:32.364Z,10.50
2017-10-01T06:25:00.670Z,10.60
2017-10-01T06:27:28.171Z,10.60
2017-10-01T06:29:55.676Z,10.60
2017-10-01T06:32:23.204Z,10.60
2017-10-01T06:34:50.698Z,10.60
2017-10-01T06:37:18.211Z,10.60
2017-10-01T06:39:45.703Z,10.60
2017-10-01T06:42:13.982Z,10.60
2017-10-01T06:44:42.242Z,10.60
2017-10-01T06:47:10.524Z,10.60
2017-10-01T06:49:38.811Z,10.60
2017-10-01T06:52:07.184Z,10.60
2017-10-01T06:54:34.760Z,10.60
2017-10-01T06:57:02.428Z,10.60
2017-10-01T06:59:30.873Z,10.60
2017-10-01T07:01:59.237Z,10.60
2017-10-01T07:04:27.957Z,10.50
2017-10-01T07:06:56.720Z,10.50
2017-10-01T07:09:24.988Z,10.40
2017-10-01T07:11:52.511Z,10.40
2017-10-01T07:14:20.011Z,10.30
2017-10-01T07:16:47.527Z,10.30
2017-10-01T07:19:15.028Z,10.30
2017-10-01T07:21:42.546Z,10.30
2017-10-01T07:24:10.043Z,10.30
2017-10-01T07:26:37.570Z,10.30
2017-10-01T07:29:05.070Z,10.30
2017-10-01T07:31:33.334Z,10.30
2017-10-01T07:34:00.843Z,10.30
2017-10-01T07:36:28.342Z,10.40
2017-10-01T07:38:55.858Z,10.40
2017-10-01T07:41:23.356Z,10.40
2017-10-01T07:43:50.884Z,10.40
2017-10-01T07:46:19.003Z,10.50
2017-10-01T07:48:48.211Z,10.50
2017-10-01T07:51:16.476Z,10.60
2017-10-01T07:53:44.754Z,10.60
2017-10-01T07:56:13.023Z,10.60
2017-10-01T07:58:40.542Z,10.60
2017-10-01T08:01:08.048Z,10.50
2017-10-01T08:03:36.326Z,10.50
2017-10-01T08:06:04.599Z,10.50
2017-10-01T08:08:32.887Z,10.50
2017-10-01T08:11:01.155Z,10.50
2017-10-01T08:13:29.448Z,10.50
2017-10-01T08:15:56.946Z,10.50
2017-10-01T08:18:24.467Z,10.50
2017-10-01T08:20:51.964Z,10.60
2017-10-01T08:23:19.480Z,10.60
2017-10-01T08:25:46.982Z,10.70
2017-10-01T08:28:14.486Z,10.70
2017-10-01T08:30:42.767Z,10.80
2017-10-01T08:33:11.078Z,10.80
2017-10-01T08:35:38.649Z,10.80
2017-10-01T08:38:06.239Z,10.90
2017-10-01T08:40:34.561Z,10.90
2017-10-01T08:43:02.188Z,10.90
2017-10-01T08:45:29.944Z,11.00
2017-10-01T08:47:58.227Z,11.10
2017-10-01T08:50:26.544Z,11.20
2017-10-01T08:52:54.038Z,11.20
2017-10-01T08:55:21.563Z,11.40
2017-10-01T08:57:49.064Z,11.50
2017-10-01T09:00:16.591Z,11.50
2017-10-01T09:02:44.094Z,11.60
2017-10-01T09:05:12.385Z,11.50
2017-10-01T09:07:39.882Z,11.50
2017-10-01T09:10:07.390Z,11.50
2017-10-01T09:12:35.646Z,11.70
2017-10-01T09:15:03.163Z,11.60
2017-10-01T09:17:30.666Z,11.60
2017-10-01T09:19:58.411Z,11.60
2017-10-01T09:22:25.915Z,11.60
2017-10-01T09:24:53.447Z,11.60
2017-10-01T09:27:20.955Z,11.60
2017-10-01T09:29:48.451Z,11.70
2017-10-01T09:32:15.968Z,11.80
2017-10-01T09:34:43.467Z,12.00
2017-10-01T09:37:10.992Z,12.20
2017-10-01T09:39:38.494Z,12.20
2017-10-01T09:42:06.015Z,12.10
2017-10-01T09:44:33.511Z,12.00
2017-10-01T09:47:01.024Z,12.00
2017-10-01T09:49:28.519Z,12.00
2017-10-01T09:51:56.045Z,12.10
2017-10-01T09:54:24.509Z,12.20
2017-10-01T09:56:52.044Z,12.30
2017-10-01T09:59:19.555Z,12.30
2017-10-01T10:01:47.092Z,12.20
2017-10-01T10:04:14.626Z,12.30
2017-10-01T10:06:42.252Z,12.40
2017-10-01T10:09:09.915Z,12.40
2017-10-01T10:11:38.200Z,12.40
2017-10-01T10:14:05.847Z,12.50
2017-10-01T10:16:34.236Z,12.60
2017-10-01T10:19:01.861Z,12.70
2017-10-01T10:21:29.401Z,12.70
2017-10-01T10:23:56.916Z,12.90
2017-10-01T10:26:24.419Z,13.10
2017-10-01T10:28:51.943Z,13.20
2017-10-01T10:31:19.451Z,13.10
2017-10-01T10:33:46.981Z,13.10
2017-10-01T10:36:14.497Z,13.10
2017-10-01T10:38:42.030Z,13.10
2017-10-01T10:41:09.548Z,13.20
2017-10-01T10:43:37.079Z,13.20
2017-10-01T10:46:04.588Z,13.20
2017-10-01T10:48:32.115Z,13.20
2017-10-01T10:50:59.633Z,13.20
2017-10-01T10:53:27.174Z,13.20
2017-10-01T10:55:54.688Z,13.10
2017-10-01T10:58:22.231Z,13.10
2017-10-01T11:00:49.739Z,13.00
2017-10-01T11:03:17.268Z,13.10
2017-10-01T11:05:44.796Z,13.20
2017-10-01T11:08:12.332Z,13.20
2017-10-01T11:10:39.847Z,13.40
2017-10-01T11:13:07.366Z,13.30
2017-10-01T11:15:34.872Z,13.30
2017-10-01T11:18:02.400Z,13.20
2017-10-01T11:20:29.909Z,13.40
2017-10-01T11:22:57.438Z,13.60
2017-10-01T11:25:24.944Z,13.70
2017-10-01T11:27:52.467Z,13.90
2017-10-01T11:30:19.975Z,14.10
2017-10-01T11:32:47.484Z,14.20
2017-10-01T11:35:15.018Z,14.20
2017-10-01T11:37:43.295Z,14.20
2017-10-01T11:40:11.583Z,14.20
2017-10-01T11:42:39.299Z,14.20
2017-10-01T11:45:06.878Z,14.30
2017-10-01T11:47:34.458Z,14.30
2017-10-01T11:50:02.056Z,14.20
2017-10-01T11:52:29.635Z,14.10
2017-10-01T11:54:57.790Z,14.10
2017-10-01T11:57:26.157Z,13.80
2017-10-01T11:59:53.724Z,13.80
2017-10-01T12:02:22.936Z,13.90
2017-10-01T12:04:50.561Z,13.90
2017-10-01T12:07:18.125Z,13.70
2017-10-01T12:09:45.740Z,13.70
2017-10-01T12:12:14.036Z,13.90
2017-10-01T12:14:42.322Z,13.70
2017-10-01T12:17:09.833Z,13.70
2017-10-01T12:19:37.355Z,13.70
2017-10-01T12:22:04.873Z,13.70
2017-10-01T12:24:32.403Z,13.80
2017-10-01T12:26:59.911Z,13.80
2017-10-01T12:29:28.215Z,14.10
2017-10-01T12:31:55.724Z,14.10
2017-10-01T12:34:23.252Z,13.90
2017-10-01T12:36:50.763Z,13.70
2017-10-01T12:39:18.290Z,13.60
2017-10-01T12:41:45.800Z,13.40
2017-10-01T12:44:13.331Z,13.50
2017-10-01T12:46:41.627Z,13.70
2017-10-01T12:49:09.159Z,13.70
2017-10-01T12:51:36.672Z,13.70
2017-10-01T12:54:04.200Z,13.70
2017-10-01T12:56:31.715Z,13.80
2017-10-01T12:58:59.238Z,13.80
2017-10-01T13:04:31.575Z,13.70
2017-10-01T13:06:59.088Z,13.70
2017-10-01T13:09:26.614Z,13.80
2017-10-01T13:11:54.132Z,13.70
2017-10-01T13:14:21.743Z,13.80
2017-10-01T13:16:49.367Z,13.90
2017-10-01T13:19:17.033Z,13.90
2017-10-01T13:21:44.576Z,14.00
2017-10-01T13:24:12.281Z,14.20
2017-10-01T13:26:40.294Z,14.10
2017-10-01T13:29:07.913Z,14.60
2017-10-01T13:31:35.415Z,14.60
2017-10-01T13:34:02.944Z,14.70
2017-10-01T13:36:30.455Z,14.60
2017-10-01T13:38:57.973Z,14.40
2017-10-01T13:41:25.479Z,14.30
2017-10-01T13:43:53.011Z,14.30
2017-10-01T13:46:20.523Z,14.30
2017-10-01T13:48:48.067Z,14.20
2017-10-01T13:51:16.335Z,14.00
2017-10-01T13:53:43.840Z,14.00
2017-10-01T13:56:11.360Z,14.40
2017-10-01T13:58:39.634Z,13.70
2017-10-01T14:01:07.923Z,13.70
2017-10-01T14:03:35.439Z,13.70
2017-10-01T14:06:02.963Z,13.60
2017-10-01T14:08:30.476Z,13.70
2017-10-01T14:10:58.780Z,13.90
2017-10-01T14:13:26.295Z,13.90
2017-10-01T14:15:53.819Z,14.10
2017-10-01T14:18:21.331Z,14.10
2017-10-01T14:20:48.856Z,14.30
2017-10-01T14:23:16.360Z,14.10
2017-10-01T14:25:43.884Z,14.20
2017-10-01T14:28:11.410Z,14.20
2017-10-01T14:30:44.584Z,14.20
2017-10-01T14:33:12.115Z,14.10
2017-10-01T14:35:40.388Z,14.00
2017-10-01T14:38:08.682Z,13.90
2017-10-01T14:40:36.179Z,13.90
2017-10-01T14:43:03.720Z,13.80
2017-10-01T14:45:31.338Z,13.70
2017-10-01T14:48:00.587Z,13.70
2017-10-01T14:50:28.291Z,13.70
2017-10-01T14:52:55.844Z,13.70
2017-10-01T14:55:23.385Z,13.70
2017-10-01T14:57:50.994Z,13.60
2017-10-01T15:00:18.508Z,13.60
2017-10-01T15:02:46.032Z,13.70
2017-10-01T15:05:13.536Z,13.60
2017-10-01T15:07:41.065Z,13.40
2017-10-01T15:10:08.575Z,13.20
2017-10-01T15:12:36.864Z,13.00
2017-10-01T15:15:04.390Z,13.00
2017-10-01T15:17:31.916Z,12.90
2017-10-01T15:19:59.431Z,12.80
2017-10-01T15:22:27.715Z,12.90
2017-10-01T15:24:56.015Z,12.90
2017-10-01T15:27:23.537Z,12.90
2017-10-01T15:29:51.823Z,12.80
2017-10-01T15:32:19.343Z,12.80
2017-10-01T15:34:46.875Z,12.70
2017-10-01T15:37:14.394Z,12.70
2017-10-01T15:39:41.920Z,12.70
2017-10-01T15:42:09.438Z,12.70
2017-10-01T15:44:36.968Z,12.70
2017-10-01T15:47:04.482Z,12.70
2017-10-01T15:49:32.009Z,12.60
2017-10-01T15:51:59.514Z,12.60
2017-10-01T15:54:27.041Z,12.60
2017-10-01T15:56:54.548Z,12.60
2017-10-01T15:59:22.071Z,12.60
2017-10-01T16:01:49.588Z,12.60
2017-10-01T16:04:17.116Z,12.60
2017-10-01T16:06:44.624Z,12.60
2017-10-01T16:09:12.151Z,12.50
2017-10-01T16:11:40.427Z,12.50
2017-10-01T16:14:07.951Z,12.50
2017-10-01T16:16:35.472Z,12.60
2017-10-01T16:19:03.764Z,12.50
2017-10-01T16:21:31.412Z,12.50
2017-10-01T16:23:59.722Z,12.40
2017-10-01T16:26:27.290Z,12.40
2017-10-01T16:28:55.621Z,12.60
2017-10-01T16:31:23.263Z,12.80
2017-10-01T16:33:50.779Z,12.50
2017-10-01T16:36:18.304Z,12.50
2017-10-01T16:38:45.820Z,12.40
2017-10-01T16:41:13.362Z,12.30
2017-10-01T16:43:40.880Z,12.30
2017-10-01T16:46:08.411Z,12.30
2017-10-01T16:48:35.943Z,12.30
2017-10-01T16:51:03.474Z,12.30
2017-10-01T16:53:30.992Z,12.20
2017-10-01T16:55:58.524Z,12.10
2017-10-01T16:58:26.036Z,12.00
2017-10-01T17:00:53.564Z,12.00
2017-10-01T17:03:21.081Z,12.00
2017-10-01T17:05:48.621Z,12.00
2017-10-01T17:08:16.128Z,12.00
2017-10-01T17:10:44.441Z,12.00
2017-10-01T17:13:12.728Z,12.00
2017-10-01T17:15:40.251Z,12.00
2017-10-01T17:18:07.783Z,12.00
2017-10-01T17:20:35.300Z,11.90
2017-10-01T17:23:02.845Z,11.90
2017-10-01T17:25:30.367Z,11.80
2017-10-01T17:27:57.892Z,11.90
2017-10-01T17:30:25.410Z,11.90
2017-10-01T17:32:52.955Z,11.80
2017-10-01T17:35:20.472Z,11.80
2017-10-01T17:37:48.008Z,11.80
2017-10-01T17:40:15.523Z,11.90
2017-10-01T17:42:43.824Z,11.90
2017-10-01T17:45:11.340Z,11.80
2017-10-01T17:47:38.876Z,11.80
2017-10-01T17:50:06.385Z,11.80
2017-10-01T17:52:33.907Z,11.80
2017-10-01T17:55:01.424Z,11.80
2017-10-01T17:57:28.957Z,11.80
2017-10-01T17:59:56.492Z,11.90
2017-10-01T18:02:24.021Z,12.00
2017-10-01T18:04:51.535Z,11.80
2017-10-01T18:07:19.063Z,11.80
2017-10-01T18:09:46.573Z,11.80
2017-10-01T18:12:14.080Z,11.80
2017-10-01T18:14:41.607Z,11.90
2017-10-01T18:17:09.123Z,11.80
2017-10-01T18:19:37.412Z,11.80
2017-10-01T18:22:04.920Z,11.80
2017-10-01T18:24:32.446Z,11.80
2017-10-01T18:26:59.956Z,11.80
2017-10-01T18:29:28.248Z,11.80
2017-10-01T18:31:56.522Z,11.70
2017-10-01T18:34:24.817Z,11.70
2017-10-01T18:36:52.323Z,11.70
2017-10-01T18:39:19.847Z,11.70
2017-10-01T18:41:47.351Z,11.80
2017-10-01T18:44:14.874Z,11.70
2017-10-01T18:46:42.379Z,11.80
2017-10-01T18:49:10.662Z,11.70
2017-10-01T18:51:38.934Z,11.60
2017-10-01T18:54:07.228Z,11.70
2017-10-01T18:56:34.731Z,11.70
2017-10-01T18:59:02.261Z,11.70
2017-10-01T19:01:29.772Z,11.60
2017-10-01T19:03:57.330Z,11.60
2017-10-01T19:06:24.838Z,11.60
2017-10-01T19:08:52.334Z,11.60
2017-10-01T19:11:19.854Z,11.70
2017-10-01T19:13:47.355Z,11.70
2017-10-01T19:16:14.883Z,11.60
2017-10-01T19:18:42.395Z,11.60
2017-10-01T19:21:10.675Z,11.70
2017-10-01T19:23:38.950Z,11.80
2017-10-01T19:26:07.236Z,11.70
2017-10-01T19:28:34.743Z,11.70
2017-10-01T19:31:02.264Z,11.70
2017-10-01T19:33:29.766Z,11.70
2017-10-01T19:35:57.286Z,11.60
2017-10-01T19:38:24.800Z,11.60
2017-10-01T19:40:52.322Z,11.60
2017-10-01T19:43:19.900Z,11.60
2017-10-01T19:45:47.448Z,11.60
2017-10-01T19:48:15.738Z,11.60
2017-10-01T19:50:43.311Z,11.60
2017-10-01T19:53:11.737Z,11.50
2017-10-01T19:55:39.541Z,11.50
2017-10-01T19:58:07.115Z,11.50
2017-10-01T20:00:35.483Z,11.50
2017-10-01T20:05:37.753Z,11.50
2017-10-01T20:08:05.322Z,11.50
2017-10-01T20:10:32.855Z,11.50
2017-10-01T20:13:00.377Z,11.50
2017-10-01T20:15:28.667Z,11.50
2017-10-01T20:17:56.188Z,11.50
2017-10-01T20:20:23.711Z,11.50
2017-10-01T20:22:51.215Z,11.50
2017-10-01T20:25:19.521Z,11.50
2017-10-01T20:27:47.032Z,11.50
2017-10-01T20:30:14.534Z,11.50
2017-10-01T20:32:42.050Z,11.50
2017-10-01T20:35:09.552Z,11.50
2017-10-01T20:37:37.076Z,11.50
2017-10-01T20:40:04.585Z,11.50
2017-10-01T20:42:32.110Z,11.50
2017-10-01T20:45:00.383Z,11.50
2017-10-01T20:47:28.666Z,11.50
2017-10-01T20:49:56.934Z,11.50
2017-10-01T20:52:25.228Z,11.50
2017-10-01T20:54:52.737Z,11.50
2017-10-01T20:57:20.268Z,11.50
2017-10-01T20:59:47.777Z,11.50
2017-10-01T21:02:16.067Z,11.60
2017-10-01T21:04:44.338Z,11.60
2017-10-01T21:07:12.694Z,11.60
2017-10-01T21:09:40.197Z,11.60
2017-10-01T21:12:07.723Z,11.70
2017-10-01T21:14:36.447Z,11.50
2017-10-01T21:17:03.970Z,11.50
2017-10-01T21:19:32.234Z,11.50
2017-10-01T21:21:59.780Z,11.50
2017-10-01T21:24:27.287Z,11.60
2017-10-01T21:26:54.828Z,11.60
2017-10-01T21:29:23.107Z,11.60
2017-10-01T21:31:51.408Z,11.60
2017-10-01T21:34:18.910Z,11.50
2017-10-01T21:36:46.435Z,11.50
2017-10-01T21:39:13.939Z,11.50
2017-10-01T21:41:41.463Z,11.50
2017-10-01T21:44:09.741Z,11.40
2017-10-01T21:46:37.264Z,11.40
2017-10-01T21:49:04.771Z,11.50
2017-10-01T21:51:32.292Z,11.40
2017-10-01T21:53:59.864Z,11.50
2017-10-01T21:56:27.395Z,11.40
2017-10-01T21:58:54.902Z,11.30
2017-10-01T22:01:22.424Z,11.30
2017-10-01T22:03:49.928Z,11.30
2017-10-01T22:06:17.477Z,11.10
2017-10-01T22:08:46.787Z,11.00
2017-10-01T22:11:14.349Z,10.90
2017-10-01T22:13:41.946Z,10.80
2017-10-01T22:16:09.478Z,10.70
2017-10-01T22:18:36.983Z,10.70
2017-10-01T22:21:04.509Z,10.60
2017-10-01T22:23:32.778Z,10.60
2017-10-01T22:26:01.062Z,10.50
2017-10-01T22:28:29.332Z,10.40
2017-10-01T22:30:57.622Z,10.40
2017-10-01T22:33:25.130Z,10.40
2017-10-01T22:35:52.651Z,10.30
2017-10-01T22:38:20.160Z,10.40
2017-10-01T22:40:47.864Z,10.30
2017-10-01T22:43:15.378Z,10.30
2017-10-01T22:45:42.882Z,10.30
2017-10-01T22:48:10.404Z,10.20
2017-10-01T22:50:37.912Z,10.20
2017-10-01T22:53:05.545Z,10.10
2017-10-01T22:55:35.104Z,10.10
2017-10-01T22:58:02.631Z,10.10
2017-10-01T23:00:30.134Z,10.10
2017-10-01T23:02:57.659Z,10.10
2017-10-01T23:05:25.163Z,10.10
2017-10-01T23:07:52.690Z,10.00
2017-10-01T23:10:20.193Z,10.00
2017-10-01T23:12:48.476Z,9.90
2017-10-01T23:15:16.743Z,9.90
2017-10-01T23:17:45.031Z,9.90
2017-10-01T23:20:13.299Z,9.90
2017-10-01T23:22:41.578Z,9.80
2017-10-01T23:25:09.838Z,9.70
2017-10-01T23:27:37.351Z,9.80
2017-10-01T23:30:04.850Z,9.80
2017-10-01T23:32:32.369Z,9.70
2017-10-01T23:34:59.875Z,9.60
2017-10-01T23:37:28.162Z,9.60
2017-10-01T23:39:56.429Z,9.60
2017-10-01T23:42:24.714Z,9.60
2017-10-01T23:44:52.978Z,9.50
2017-10-01T23:47:21.270Z,9.40
2017-10-01T23:49:49.534Z,9.30
2017-10-01T23:52:17.832Z,9.30
2017-10-01T23:54:45.329Z,9.30
2017-10-01T23:57:12.848Z,9.20
2017-10-01T23:59:40.355Z,9.20
